ADDS METAR Data INFO
IDs: Format: Raw Decoded Include TAF

Data at: 0749 UTC 17 Oct 2017

KFFM 170734Z AUTO 16003KT 10SM CLR 06/04 A2996 RMK AO2
KFFM 170715Z AUTO 16003KT 10SM CLR 07/04 A2996 RMK AO2
KFFM 170654Z AUTO 00000KT 10SM CLR 06/04 A2996 RMK AO2
KFFM 170634Z AUTO 18003KT 10SM CLR 07/04 A2995 RMK AO2
KFFM 170615Z AUTO 00000KT 10SM CLR 08/04 A2995 RMK AO2
KFFM 170554Z AUTO 00000KT 10SM CLR 08/04 A2995 RMK AO2
KFFM 170534Z AUTO 00000KT 10SM CLR 08/04 A2995 RMK AO2
KFFM 170515Z AUTO 00000KT 10SM CLR 09/05 A2995 RMK AO2
KFFM 170454Z AUTO 00000KT 10SM CLR 09/05 A2995 RMK AO2
KFFM 170434Z AUTO 19003KT 10SM CLR 09/04 A2994 RMK AO2
KFFM 170415Z AUTO 18004KT 10SM CLR 09/04 A2994 RMK AO2
KFFM 170354Z AUTO 00000KT 10SM CLR 09/04 A2995 RMK AO2
KFFM 170334Z AUTO 21003KT 10SM CLR 09/04 A2994 RMK AO2
KFFM 170314Z AUTO 19003KT 10SM CLR 10/05 A2994 RMK AO2
KFFM 170254Z AUTO 21003KT 10SM CLR 11/05 A2994 RMK AO2
KFFM 170234Z AUTO 19004KT 10SM CLR 11/04 A2993 RMK AO2
KFFM 170214Z AUTO 19004KT 10SM CLR 11/04 A2992 RMK AO2
KFFM 170154Z AUTO 23004KT 10SM CLR 11/05 A2992 RMK AO2
KFFM 170134Z AUTO 21004KT 10SM CLR 11/05 A2992 RMK AO2
KFFM 170114Z AUTO 23004KT 10SM CLR 12/04 A2992 RMK AO2
KFFM 170054Z AUTO 23005KT 10SM CLR 12/05 A2992 RMK AO2
KFFM 170034Z AUTO 22005KT 10SM CLR 13/04 A2992 RMK AO2
KFFM 170014Z AUTO 23006KT 10SM CLR 13/05 A2992 RMK AO2
KFFM 162354Z AUTO 23007KT 10SM CLR 14/05 A2991 RMK AO2
KFFM 162334Z AUTO 23006KT 10SM CLR 16/05 A2991 RMK AO2
KFFM 162314Z AUTO 23007KT 10SM CLR 17/05 A2990 RMK AO2
KFFM 162254Z AUTO 24008KT 10SM CLR 19/04 A2990 RMK AO2
KFFM 162234Z AUTO 24009KT 10SM CLR 19/04 A2990 RMK AO2
KFFM 162214Z AUTO 23010KT 10SM CLR 21/04 A2989 RMK AO2
KFFM 162154Z AUTO 22012G18KT 10SM CLR 21/04 A2990 RMK AO2
KFFM 162133Z AUTO 23014G18KT 10SM CLR 21/04 A2990 RMK AO2
KFFM 162114Z AUTO 23012KT 10SM CLR 21/04 A2991 RMK AO2
KFFM 162054Z AUTO 21014G17KT 10SM CLR 21/04 A2992 RMK AO2
KFFM 162035Z AUTO 22014KT 10SM CLR 21/04 A2992 RMK AO2
KFFM 162014Z AUTO 23014G19KT 10SM CLR 20/04 A2993 RMK AO2
KFFM 161954Z AUTO 22016KT 10SM CLR 19/04 A2994 RMK AO2
KFFM 161934Z AUTO 22017G21KT 10SM CLR 19/04 A2995 RMK AO2
KFFM 161914Z AUTO 22015G19KT 10SM CLR 19/04 A2997 RMK AO2
KFFM 161854Z AUTO 22018G21KT 10SM CLR 18/04 A2998 RMK AO2
KFFM 161834Z AUTO 21015KT 10SM CLR 17/04 A3001 RMK AO2
KFFM 161814Z AUTO 21014G18KT 10SM CLR 17/04 A3002 RMK AO2
KFFM 161754Z AUTO 22014G18KT 10SM CLR 17/03 A3004 RMK AO2
KFFM 161734Z AUTO 20013KT 10SM CLR 16/04 A3005 RMK AO2
KFFM 161714Z AUTO 20011KT 10SM CLR 15/04 A3006 RMK AO2
KFFM 161654Z AUTO 20012G16KT 10SM CLR 14/03 A3006 RMK AO2
KFFM 161634Z AUTO 20013G17KT 10SM CLR 13/03 A3007 RMK AO2
KFFM 161614Z AUTO 19012G15KT 10SM CLR 12/03 A3009 RMK AO2
KFFM 161554Z AUTO 20012KT 10SM CLR 11/03 A3010 RMK AO2
KFFM 161534Z AUTO 18010KT 10SM CLR 10/03 A3011 RMK AO2
KFFM 161514Z AUTO 18009KT 10SM CLR 08/03 A3012 RMK AO2
KFFM 161454Z AUTO 18007KT 10SM CLR 07/02 A3013 RMK AO2
KFFM 161434Z AUTO 17007KT 10SM CLR 06/02 A3014 RMK AO2
KFFM 161414Z AUTO 17007KT 10SM CLR 04/02 A3015 RMK AO2
KFFM 161354Z AUTO 16007KT 10SM CLR 02/02 A3015 RMK AO2
KFFM 161334Z AUTO 16007KT 10SM CLR 02/02 A3016 RMK AO2
KFFM 161314Z AUTO 16007KT 10SM CLR 01/01 A3016 RMK AO2
KFFM 161254Z AUTO 16006KT 10SM CLR 01/01 A3016 RMK AO2
KFFM 161234Z AUTO 16006KT 10SM CLR 01/01 A3017 RMK AO2
KFFM 161214Z AUTO 15006KT 10SM CLR 01/01 A3017 RMK AO2
KFFM 161154Z AUTO 16005KT 10SM CLR 00/00 A3018 RMK AO2
KFFM 161134Z AUTO 17005KT 10SM CLR M01/M01 A3019 RMK AO2
KFFM 161114Z AUTO 15005KT 10SM CLR 01/01 A3018 RMK AO2
KFFM 161054Z AUTO 15006KT 10SM CLR 01/01 A3018 RMK AO2
KFFM 161034Z AUTO 16004KT 10SM CLR 00/00 A3019 RMK AO2
KFFM 161014Z AUTO 16004KT 10SM CLR 01/01 A3019 RMK AO2
KFFM 160954Z AUTO 13004KT 10SM CLR 01/01 A3019 RMK AO2
KFFM 160934Z AUTO 15004KT 10SM CLR 01/01 A3019 RMK AO2
KFFM 160914Z AUTO 16004KT 10SM CLR 01/01 A3019 RMK AO2
KFFM 160854Z AUTO 16004KT 10SM CLR 01/01 A3020 RMK AO2
KFFM 160834Z AUTO 16004KT 10SM CLR 01/01 A3020 RMK AO2
KFFM 160814Z AUTO 17003KT 10SM CLR 01/01 A3020 RMK AO2
KFFM 160754Z AUTO 17004KT 10SM CLR 01/01 A3020 RMK AO2
KFFM 160734Z AUTO 00000KT 10SM CLR 02/02 A3021 RMK AO2
KFFM 160714Z AUTO 00000KT 10SM CLR 02/02 A3021 RMK AO2
KFFM 160654Z AUTO 19003KT 10SM CLR 02/02 A3021 RMK AO2
KFFM 160634Z AUTO 21004KT 10SM CLR 01/01 A3021 RMK AO2
KFFM 160614Z AUTO 23003KT 10SM CLR 02/00 A3020 RMK AO2
KFFM 160554Z AUTO 00000KT 10SM CLR 02/00 A3019 RMK AO2
KFFM 160534Z AUTO 30004KT 10SM CLR 03/01 A3020 RMK AO2
KFFM 160514Z AUTO 34003KT 10SM CLR 04/01 A3019 RMK AO2
KFFM 160454Z AUTO 30003KT 10SM CLR 03/01 A3020 RMK AO2
KFFM 160434Z AUTO 30003KT 10SM CLR 04/02 A3020 RMK AO2
KFFM 160414Z AUTO 00000KT 10SM CLR 04/02 A3020 RMK AO2
KFFM 160354Z AUTO 00000KT 10SM CLR 05/03 A3020 RMK AO2
KFFM 160334Z AUTO 00000KT 10SM CLR 05/03 A3019 RMK AO2
KFFM 160314Z AUTO 21003KT 10SM CLR 06/03 A3018 RMK AO2
KFFM 160254Z AUTO 19004KT 10SM CLR 06/03 A3018 RMK AO2
KFFM 160234Z AUTO 00000KT 10SM CLR 07/04 A3018 RMK AO2
KFFM 160215Z AUTO 00000KT 10SM SCT065 07/04 A3017 RMK AO2
KFFM 160154Z AUTO 00000KT 10SM BKN065 OVC080 07/04 A3017 RMK AO2
KFFM 160134Z AUTO 20003KT 10SM BKN080 08/04 A3017 RMK AO2
KFFM 160115Z AUTO 00000KT 10SM OVC080 07/04 A3017 RMK AO2
KFFM 160054Z AUTO 22003KT 10SM OVC090 07/04 A3017 RMK AO2
KFFM 160034Z AUTO 22003KT 10SM OVC090 08/03 A3016 RMK AO2
KFFM 160015Z AUTO 23004KT 10SM OVC090 08/04 A3016 RMK AO2
KFFM 152354Z AUTO 21004KT 10SM OVC090 08/04 A3016 RMK AO2
KFFM 152334Z AUTO 22003KT 10SM OVC090 09/04 A3016 RMK AO2
KFFM 152315Z AUTO 00000KT 10SM OVC090 09/04 A3016 RMK AO2
KFFM 152254Z AUTO 00000KT 10SM OVC100 09/04 A3016 RMK AO2
KFFM 152234Z AUTO 00000KT 10SM SCT070 BKN100 09/04 A3016 RMK AO2
KFFM 152215Z AUTO 28004KT 10SM BKN070 BKN090 09/04 A3016 RMK AO2
KFFM 152154Z AUTO 28007KT 10SM BKN070 OVC100 09/03 A3016 RMK AO2
KFFM 152134Z AUTO 27008KT 10SM SCT070 BKN100 09/03 A3016 RMK AO2
KFFM 152115Z AUTO 27012KT 10SM BKN100 09/03 A3015 RMK AO2
KFFM 152054Z AUTO 28008KT 10SM SCT100 11/03 A3015 RMK AO2
KFFM 152034Z AUTO 27009G14KT 10SM CLR 10/03 A3014 RMK AO2
KFFM 152015Z AUTO 27009KT 10SM CLR 10/02 A3014 RMK AO2
KFFM 151954Z AUTO 28009KT 10SM CLR 10/03 A3014 RMK AO2